sensor_id;sensor_type;location;lat;lon;timestamp;pressure;altitude;pressure_sealevel;temperature;humidity
61026;BME280;46911;32.650;-16.902;2023-05-22T00:01:01;101547.78;;;18.51;51.07
61026;BME280;46911;32.650;-16.902;2023-05-22T00:03:06;101530.94;;;18.37;50.86
61026;BME280;46911;32.650;-16.902;2023-05-22T00:05:12;101523.38;;;18.31;51.06
61026;BME280;46911;32.650;-16.902;2023-05-22T00:07:13;101530.63;;;18.31;51.42
61026;BME280;46911;32.650;-16.902;2023-05-22T00:09:16;101531.34;;;18.33;51.76
61026;BME280;46911;32.650;-16.902;2023-05-22T00:11:17;101542.44;;;18.39;51.51
61026;BME280;46911;32.650;-16.902;2023-05-22T00:13:18;101541.75;;;18.37;51.91
61026;BME280;46911;32.650;-16.902;2023-05-22T00:15:22;101550.84;;;18.36;51.69
61026;BME280;46911;32.650;-16.902;2023-05-22T00:17:24;101544.59;;;18.36;50.31
61026;BME280;46911;32.650;-16.902;2023-05-22T00:19:28;101528.38;;;18.36;47.94
61026;BME280;46911;32.650;-16.902;2023-05-22T00:21:32;101525.16;;;18.21;47.86
61026;BME280;46911;32.650;-16.902;2023-05-22T00:23:34;101530.38;;;18.44;45.78
61026;BME280;46911;32.650;-16.902;2023-05-22T00:25:38;101529.53;;;18.43;45.93
61026;BME280;46911;32.650;-16.902;2023-05-22T00:27:39;101512.44;;;18.33;46.13
61026;BME280;46911;32.650;-16.902;2023-05-22T00:29:43;101513.00;;;18.27;46.60
61026;BME280;46911;32.650;-16.902;2023-05-22T00:31:44;101525.94;;;18.33;47.01
61026;BME280;46911;32.650;-16.902;2023-05-22T00:33:47;101510.22;;;18.17;47.58
61026;BME280;46911;32.650;-16.902;2023-05-22T00:35:55;101514.63;;;18.18;47.99
61026;BME280;46911;32.650;-16.902;2023-05-22T00:37:56;101532.88;;;18.26;48.07
61026;BME280;46911;32.650;-16.902;2023-05-22T00:40:02;101509.06;;;18.10;48.93
61026;BME280;46911;32.650;-16.902;2023-05-22T00:42:05;101510.81;;;18.20;50.50
61026;BME280;46911;32.650;-16.902;2023-05-22T00:44:11;101522.53;;;18.31;50.73
61026;BME280;46911;32.650;-16.902;2023-05-22T00:46:16;101506.41;;;18.19;51.09
61026;BME280;46911;32.650;-16.902;2023-05-22T00:48:21;101507.81;;;18.14;51.56
61026;BME280;46911;32.650;-16.902;2023-05-22T00:50:30;101513.91;;;18.16;52.12
61026;BME280;46911;32.650;-16.902;2023-05-22T00:52:31;101511.47;;;18.13;52.46
61026;BME280;46911;32.650;-16.902;2023-05-22T00:54:35;101533.25;;;18.21;52.48
61026;BME280;46911;32.650;-16.902;2023-05-22T00:56:40;101506.50;;;18.08;52.80
61026;BME280;46911;32.650;-16.902;2023-05-22T00:58:42;101500.91;;;18.00;52.79
61026;BME280;46911;32.650;-16.902;2023-05-22T01:00:44;101478.06;;;17.83;53.13
61026;BME280;46911;32.650;-16.902;2023-05-22T01:02:50;101523.25;;;18.12;53.27
61026;BME280;46911;32.650;-16.902;2023-05-22T01:04:51;101519.88;;;18.10;53.15
61026;BME280;46911;32.650;-16.902;2023-05-22T01:06:55;101509.59;;;18.03;53.49
61026;BME280;46911;32.650;-16.902;2023-05-22T01:08:56;101518.41;;;18.05;53.34
61026;BME280;46911;32.650;-16.902;2023-05-22T01:11:06;101516.56;;;18.06;53.47
61026;BME280;46911;32.650;-16.902;2023-05-22T01:13:29;101526.25;;;18.09;53.61
61026;BME280;46911;32.650;-16.902;2023-05-22T01:15:42;101500.09;;;18.09;53.29
61026;BME280;46911;32.650;-16.902;2023-05-22T01:17:51;101502.28;;;18.25;52.60
61026;BME280;46911;32.650;-16.902;2023-05-22T01:20:05;101499.41;;;18.17;52.26
61026;BME280;46911;32.650;-16.902;2023-05-22T01:24:58;101486.91;;;18.16;52.25
61026;BME280;46911;32.650;-16.902;2023-05-22T01:32:11;101509.13;;;18.29;52.27
61026;BME280;46911;32.650;-16.902;2023-05-22T01:34:16;101496.47;;;18.20;52.42
61026;BME280;46911;32.650;-16.902;2023-05-22T01:36:20;101505.31;;;18.32;52.58
61026;BME280;46911;32.650;-16.902;2023-05-22T01:38:29;101498.25;;;18.40;51.96
61026;BME280;46911;32.650;-16.902;2023-05-22T01:40:33;101497.41;;;18.40;52.02
61026;BME280;46911;32.650;-16.902;2023-05-22T01:42:36;101497.19;;;18.32;52.05
61026;BME280;46911;32.650;-16.902;2023-05-22T01:44:43;101485.03;;;18.37;51.92
61026;BME280;46911;32.650;-16.902;2023-05-22T01:46:50;101505.09;;;18.45;51.94
61026;BME280;46911;32.650;-16.902;2023-05-22T01:48:51;101479.44;;;18.29;52.02
61026;BME280;46911;32.650;-16.902;2023-05-22T01:50:53;101494.94;;;18.37;52.02
61026;BME280;46911;32.650;-16.902;2023-05-22T01:53:10;101498.31;;;18.29;52.22
61026;BME280;46911;32.650;-16.902;2023-05-22T01:55:23;101480.84;;;18.23;52.70
61026;BME280;46911;32.650;-16.902;2023-05-22T01:57:30;101478.94;;;18.14;53.01
61026;BME280;46911;32.650;-16.902;2023-05-22T02:01:37;101483.81;;;18.20;53.17
61026;BME280;46911;32.650;-16.902;2023-05-22T02:03:41;101473.84;;;18.21;53.08
61026;BME280;46911;32.650;-16.902;2023-05-22T02:05:44;101500.50;;;18.35;53.03
61026;BME280;46911;32.650;-16.902;2023-05-22T02:07:48;101487.97;;;18.34;53.29
61026;BME280;46911;32.650;-16.902;2023-05-22T02:09:55;101478.88;;;18.26;53.13
61026;BME280;46911;32.650;-16.902;2023-05-22T02:12:00;101476.41;;;18.22;53.44
61026;BME280;46911;32.650;-16.902;2023-05-22T02:14:05;101475.56;;;18.22;53.71
61026;BME280;46911;32.650;-16.902;2023-05-22T02:16:13;101499.06;;;18.31;53.96
61026;BME280;46911;32.650;-16.902;2023-05-22T02:18:14;101476.56;;;18.21;54.42
61026;BME280;46911;32.650;-16.902;2023-05-22T02:20:17;101499.91;;;18.32;54.34
61026;BME280;46911;32.650;-16.902;2023-05-22T02:22:18;101500.91;;;18.31;54.77
61026;BME280;46911;32.650;-16.902;2023-05-22T02:24:19;101487.50;;;18.19;54.84
61026;BME280;46911;32.650;-16.902;2023-05-22T02:26:21;101501.09;;;18.39;55.04
61026;BME280;46911;32.650;-16.902;2023-05-22T02:28:26;101476.16;;;18.26;54.97
61026;BME280;46911;32.650;-16.902;2023-05-22T02:30:27;101497.09;;;18.33;54.86
61026;BME280;46911;32.650;-16.902;2023-05-22T02:32:31;101492.53;;;18.34;55.07
61026;BME280;46911;32.650;-16.902;2023-05-22T02:34:33;101471.59;;;18.26;54.43
61026;BME280;46911;32.650;-16.902;2023-05-22T02:36:34;101480.44;;;18.28;54.35
61026;BME280;46911;32.650;-16.902;2023-05-22T02:38:37;101490.44;;;18.37;54.63
61026;BME280;46911;32.650;-16.902;2023-05-22T02:40:41;101488.25;;;18.31;54.66
61026;BME280;46911;32.650;-16.902;2023-05-22T02:42:42;101479.97;;;18.13;55.05
61026;BME280;46911;32.650;-16.902;2023-05-22T02:44:47;101497.00;;;18.14;55.20
61026;BME280;46911;32.650;-16.902;2023-05-22T02:46:49;101496.09;;;18.03;55.58
61026;BME280;46911;32.650;-16.902;2023-05-22T02:48:50;101483.16;;;17.97;55.77
61026;BME280;46911;32.650;-16.902;2023-05-22T02:50:52;101480.47;;;17.86;55.93
61026;BME280;46911;32.650;-16.902;2023-05-22T02:53:00;101463.50;;;17.74;56.02
61026;BME280;46911;32.650;-16.902;2023-05-22T02:55:04;101487.41;;;17.79;56.37
61026;BME280;46911;32.650;-16.902;2023-05-22T02:57:06;101463.47;;;17.64;56.52
61026;BME280;46911;32.650;-16.902;2023-05-22T02:59:07;101462.72;;;17.62;56.78
61026;BME280;46911;32.650;-16.902;2023-05-22T03:01:08;101483.97;;;17.77;56.68
61026;BME280;46911;32.650;-16.902;2023-05-22T03:03:12;101472.00;;;17.69;56.59
61026;BME280;46911;32.650;-16.902;2023-05-22T03:05:15;101486.22;;;17.71;56.64
61026;BME280;46911;32.650;-16.902;2023-05-22T03:07:17;101475.97;;;17.65;56.76
61026;BME280;46911;32.650;-16.902;2023-05-22T03:09:20;101475.22;;;17.63;56.91
61026;BME280;46911;32.650;-16.902;2023-05-22T03:11:21;101483.91;;;17.67;56.67
61026;BME280;46911;32.650;-16.902;2023-05-22T03:13:25;101454.56;;;17.52;56.85
61026;BME280;46911;32.650;-16.902;2023-05-22T03:15:26;101453.47;;;17.55;56.87
61026;BME280;46911;32.650;-16.902;2023-05-22T03:17:35;101452.84;;;17.51;56.91
61026;BME280;46911;32.650;-16.902;2023-05-22T03:19:39;101472.66;;;17.62;57.00
61026;BME280;46911;32.650;-16.902;2023-05-22T03:21:43;101478.13;;;17.71;57.04
61026;BME280;46911;32.650;-16.902;2023-05-22T03:23:44;101455.50;;;17.63;57.12
61026;BME280;46911;32.650;-16.902;2023-05-22T03:25:45;101473.44;;;17.73;57.14
61026;BME280;46911;32.650;-16.902;2023-05-22T03:27:47;101446.81;;;17.59;57.31
61026;BME280;46911;32.650;-16.902;2023-05-22T03:29:48;101475.69;;;17.68;57.77
61026;BME280;46911;32.650;-16.902;2023-05-22T03:31:52;101473.59;;;17.72;57.79
61026;BME280;46911;32.650;-16.902;2023-05-22T03:33:56;101469.78;;;17.74;56.74
61026;BME280;46911;32.650;-16.902;2023-05-22T03:35:57;101463.63;;;17.72;54.50
61026;BME280;46911;32.650;-16.902;2023-05-22T03:38:00;101454.16;;;17.57;54.01
61026;BME280;46911;32.650;-16.902;2023-05-22T03:40:02;101461.69;;;17.53;54.06
61026;BME280;46911;32.650;-16.902;2023-05-22T03:42:06;101468.91;;;17.53;54.03
61026;BME280;46911;32.650;-16.902;2023-05-22T03:44:10;101472.00;;;17.48;54.28
61026;BME280;46911;32.650;-16.902;2023-05-22T03:46:10;101471.88;;;17.50;54.44
61026;BME280;46911;32.650;-16.902;2023-05-22T03:48:12;101473.59;;;17.51;54.87
61026;BME280;46911;32.650;-16.902;2023-05-22T03:50:12;101465.88;;;17.46;55.74
61026;BME280;46911;32.650;-16.902;2023-05-22T03:52:14;101474.09;;;17.45;56.00
61026;BME280;46911;32.650;-16.902;2023-05-22T03:54:14;101473.63;;;17.39;56.50
61026;BME280;46911;32.650;-16.902;2023-05-22T03:56:18;101459.75;;;17.23;56.88
61026;BME280;46911;32.650;-16.902;2023-05-22T03:58:22;101480.22;;;17.26;57.01
61026;BME280;46911;32.650;-16.902;2023-05-22T04:00:25;101457.13;;;17.12;57.63
61026;BME280;46911;32.650;-16.902;2023-05-22T04:02:25;101474.00;;;17.14;57.87
61026;BME280;46911;32.650;-16.902;2023-05-22T04:04:34;101462.81;;;16.97;58.08
61026;BME280;46911;32.650;-16.902;2023-05-22T04:06:37;101454.84;;;16.96;58.71
61026;BME280;46911;32.650;-16.902;2023-05-22T04:08:42;101449.06;;;17.00;57.90
61026;BME280;46911;32.650;-16.902;2023-05-22T04:10:45;101469.25;;;17.06;57.83
61026;BME280;46911;32.650;-16.902;2023-05-22T04:12:48;101450.06;;;16.88;58.30
61026;BME280;46911;32.650;-16.902;2023-05-22T04:14:49;101461.44;;;17.03;58.29
61026;BME280;46911;32.650;-16.902;2023-05-22T04:16:53;101477.34;;;17.06;57.89
61026;BME280;46911;32.650;-16.902;2023-05-22T04:18:53;101470.97;;;17.07;56.92
61026;BME280;46911;32.650;-16.902;2023-05-22T04:20:54;101474.28;;;16.99;56.20
61026;BME280;46911;32.650;-16.902;2023-05-22T04:22:58;101466.00;;;16.91;56.11
61026;BME280;46911;32.650;-16.902;2023-05-22T04:25:05;101468.94;;;16.88;55.75
61026;BME280;46911;32.650;-16.902;2023-05-22T04:27:08;101475.69;;;16.82;55.59
61026;BME280;46911;32.650;-16.902;2023-05-22T04:29:11;101475.06;;;16.79;55.47
61026;BME280;46911;32.650;-16.902;2023-05-22T04:31:13;101472.50;;;16.77;55.43
61026;BME280;46911;32.650;-16.902;2023-05-22T04:33:17;101453.44;;;16.57;55.49
61026;BME280;46911;32.650;-16.902;2023-05-22T04:35:18;101482.69;;;16.73;55.55
61026;BME280;46911;32.650;-16.902;2023-05-22T04:37:22;101484.53;;;16.73;55.22
61026;BME280;46911;32.650;-16.902;2023-05-22T04:39:24;101464.97;;;16.60;55.12
61026;BME280;46911;32.650;-16.902;2023-05-22T04:41:25;101462.97;;;16.62;55.46
61026;BME280;46911;32.650;-16.902;2023-05-22T04:43:26;101459.94;;;16.66;56.07
61026;BME280;46911;32.650;-16.902;2023-05-22T04:45:32;101474.09;;;16.80;56.34
61026;BME280;46911;32.650;-16.902;2023-05-22T04:47:35;101457.09;;;16.68;57.05
61026;BME280;46911;32.650;-16.902;2023-05-22T04:49:40;101468.72;;;16.80;57.65
61026;BME280;46911;32.650;-16.902;2023-05-22T04:51:46;101479.22;;;16.83;57.79
61026;BME280;46911;32.650;-16.902;2023-05-22T04:53:47;101464.22;;;16.69;58.35
61026;BME280;46911;32.650;-16.902;2023-05-22T04:55:49;101483.13;;;17.01;59.31
61026;BME280;46911;32.650;-16.902;2023-05-22T04:57:50;101466.09;;;17.01;58.33
61026;BME280;46911;32.650;-16.902;2023-05-22T04:59:52;101472.41;;;17.11;57.13
61026;BME280;46911;32.650;-16.902;2023-05-22T05:01:53;101460.44;;;17.04;56.44
61026;BME280;46911;32.650;-16.902;2023-05-22T05:04:01;101469.00;;;17.09;56.12
61026;BME280;46911;32.650;-16.902;2023-05-22T05:06:04;101466.91;;;17.13;55.39
61026;BME280;46911;32.650;-16.902;2023-05-22T05:08:05;101471.31;;;17.14;55.19
61026;BME280;46911;32.650;-16.902;2023-05-22T05:10:09;101469.34;;;17.16;55.05
61026;BME280;46911;32.650;-16.902;2023-05-22T05:12:10;101467.38;;;17.18;55.05
61026;BME280;46911;32.650;-16.902;2023-05-22T05:14:16;101473.84;;;17.27;54.13
61026;BME280;46911;32.650;-16.902;2023-05-22T05:16:18;101476.88;;;17.33;53.98
61026;BME280;46911;32.650;-16.902;2023-05-22T05:18:18;101469.75;;;17.32;53.64
61026;BME280;46911;32.650;-16.902;2023-05-22T05:20:20;101462.84;;;17.39;53.46
61026;BME280;46911;32.650;-16.902;2023-05-22T05:22:23;101464.09;;;17.35;53.53
61026;BME280;46911;32.650;-16.902;2023-05-22T05:24:24;101443.56;;;17.23;53.79
61026;BME280;46911;32.650;-16.902;2023-05-22T05:26:29;101464.09;;;17.35;53.79
61026;BME280;46911;32.650;-16.902;2023-05-22T05:28:32;101457.84;;;17.35;53.97
61026;BME280;46911;32.650;-16.902;2023-05-22T05:30:35;101454.44;;;17.33;54.19
61026;BME280;46911;32.650;-16.902;2023-05-22T05:32:58;101443.31;;;17.26;54.63
61026;BME280;46911;32.650;-16.902;2023-05-22T05:35:14;101439.03;;;17.23;54.96
61026;BME280;46911;32.650;-16.902;2023-05-22T05:37:19;101457.34;;;17.41;54.99
61026;BME280;46911;32.650;-16.902;2023-05-22T05:39:22;101443.78;;;17.31;54.82
61026;BME280;46911;32.650;-16.902;2023-05-22T05:41:25;101438.72;;;17.38;54.93
61026;BME280;46911;32.650;-16.902;2023-05-22T05:43:35;101439.13;;;17.54;56.01
61026;BME280;46911;32.650;-16.902;2023-05-22T05:45:41;101445.81;;;17.60;55.83
61026;BME280;46911;32.650;-16.902;2023-05-22T05:47:43;101448.25;;;17.63;55.26
61026;BME280;46911;32.650;-16.902;2023-05-22T05:49:45;101447.78;;;17.58;55.43
61026;BME280;46911;32.650;-16.902;2023-05-22T05:51:49;101458.06;;;17.64;55.82
61026;BME280;46911;32.650;-16.902;2023-05-22T05:53:56;101449.50;;;17.59;56.07
61026;BME280;46911;32.650;-16.902;2023-05-22T05:56:00;101468.56;;;17.67;56.42
61026;BME280;46911;32.650;-16.902;2023-05-22T05:58:05;101455.41;;;17.53;56.39
61026;BME280;46911;32.650;-16.902;2023-05-22T06:00:20;101474.63;;;17.60;56.37
61026;BME280;46911;32.650;-16.902;2023-05-22T06:02:24;101471.09;;;17.59;56.73
61026;BME280;46911;32.650;-16.902;2023-05-22T06:04:27;101474.38;;;17.63;57.46
61026;BME280;46911;32.650;-16.902;2023-05-22T06:06:32;101481.59;;;17.62;58.02
61026;BME280;46911;32.650;-16.902;2023-05-22T06:08:47;101487.75;;;17.64;57.96
61026;BME280;46911;32.650;-16.902;2023-05-22T06:10:50;101484.44;;;17.61;57.06
61026;BME280;46911;32.650;-16.902;2023-05-22T06:13:11;101485.22;;;17.51;57.36
61026;BME280;46911;32.650;-16.902;2023-05-22T06:15:13;101464.97;;;17.36;57.81
61026;BME280;46911;32.650;-16.902;2023-05-22T06:17:17;101490.28;;;17.45;57.85
61026;BME280;46911;32.650;-16.902;2023-05-22T06:19:26;101485.16;;;17.42;57.91
61026;BME280;46911;32.650;-16.902;2023-05-22T06:21:28;101479.56;;;17.33;57.62
61026;BME280;46911;32.650;-16.902;2023-05-22T06:23:29;101477.72;;;17.34;57.75
61026;BME280;46911;32.650;-16.902;2023-05-22T06:25:32;101482.78;;;17.27;57.70
61026;BME280;46911;32.650;-16.902;2023-05-22T06:27:41;101498.44;;;17.33;57.81
61026;BME280;46911;32.650;-16.902;2023-05-22T06:29:43;101480.47;;;17.22;58.07
61026;BME280;46911;32.650;-16.902;2023-05-22T06:31:44;101497.69;;;17.31;58.13
61026;BME280;46911;32.650;-16.902;2023-05-22T06:33:45;101487.47;;;17.25;58.35
61026;BME280;46911;32.650;-16.902;2023-05-22T06:35:47;101478.69;;;17.12;58.83
61026;BME280;46911;32.650;-16.902;2023-05-22T06:37:49;101471.56;;;17.11;58.86
61026;BME280;46911;32.650;-16.902;2023-05-22T06:39:50;101499.22;;;17.24;58.95
61026;BME280;46911;32.650;-16.902;2023-05-22T06:42:14;101497.38;;;17.24;59.22
61026;BME280;46911;32.650;-16.902;2023-05-22T06:44:37;101480.59;;;17.21;58.92
61026;BME280;46911;32.650;-16.902;2023-05-22T06:46:41;101500.75;;;17.38;58.17
61026;BME280;46911;32.650;-16.902;2023-05-22T06:48:45;101497.91;;;17.39;57.82
61026;BME280;46911;32.650;-16.902;2023-05-22T06:50:57;101493.19;;;17.53;57.07
61026;BME280;46911;32.650;-16.902;2023-05-22T06:52:59;101497.47;;;17.77;56.40
61026;BME280;46911;32.650;-16.902;2023-05-22T06:55:01;101493.97;;;17.86;56.05
61026;BME280;46911;32.650;-16.902;2023-05-22T06:57:06;101482.06;;;17.88;55.68
61026;BME280;46911;32.650;-16.902;2023-05-22T06:59:11;101483.31;;;18.05;54.96
61026;BME280;46911;32.650;-16.902;2023-05-22T07:01:35;101493.34;;;18.24;54.22
61026;BME280;46911;32.650;-16.902;2023-05-22T07:03:43;101489.50;;;18.17;54.66
61026;BME280;46911;32.650;-16.902;2023-05-22T07:06:07;101499.91;;;18.32;55.21
61026;BME280;46911;32.650;-16.902;2023-05-22T07:08:08;101498.25;;;18.40;55.38
61026;BME280;46911;32.650;-16.902;2023-05-22T07:10:12;101478.88;;;18.26;55.10
61026;BME280;46911;32.650;-16.902;2023-05-22T07:12:14;101486.81;;;18.27;55.39
61026;BME280;46911;32.650;-16.902;2023-05-22T07:14:20;101488.25;;;18.31;55.49
61026;BME280;46911;32.650;-16.902;2023-05-22T07:16:21;101487.66;;;18.28;55.93
61026;BME280;46911;32.650;-16.902;2023-05-22T07:18:23;101488.78;;;18.25;56.64
61026;BME280;46911;32.650;-16.902;2023-05-22T07:20:27;101472.25;;;18.09;57.26
61026;BME280;46911;32.650;-16.902;2023-05-22T07:22:41;101491.88;;;18.11;57.76
61026;BME280;46911;32.650;-16.902;2023-05-22T07:24:44;101507.19;;;18.10;57.82
61026;BME280;46911;32.650;-16.902;2023-05-22T07:26:47;101486.97;;;17.95;58.69
61026;BME280;46911;32.650;-16.902;2023-05-22T07:28:52;101521.56;;;18.11;58.41
61026;BME280;46911;32.650;-16.902;2023-05-22T07:30:54;101508.91;;;18.11;57.71
61026;BME280;46911;32.650;-16.902;2023-05-22T07:32:58;101503.03;;;18.27;57.05
61026;BME280;46911;32.650;-16.902;2023-05-22T07:35:02;101499.84;;;18.53;57.03
61026;BME280;46911;32.650;-16.902;2023-05-22T07:37:07;101525.31;;;18.91;56.44
61026;BME280;46911;32.650;-16.902;2023-05-22T07:39:09;101500.13;;;19.00;55.94
61026;BME280;46911;32.650;-16.902;2023-05-22T07:41:16;101503.13;;;19.17;55.20
61026;BME280;46911;32.650;-16.902;2023-05-22T07:43:17;101526.34;;;19.39;55.15
61026;BME280;46911;32.650;-16.902;2023-05-22T07:45:18;101524.63;;;19.38;55.01
61026;BME280;46911;32.650;-16.902;2023-05-22T07:47:19;101526.91;;;19.23;55.58
61026;BME280;46911;32.650;-16.902;2023-05-22T07:49:27;101515.81;;;19.26;55.32
61026;BME280;46911;32.650;-16.902;2023-05-22T07:51:30;101516.66;;;19.36;55.79
61026;BME280;46911;32.650;-16.902;2023-05-22T07:53:36;101532.00;;;19.65;54.88
61026;BME280;46911;32.650;-16.902;2023-05-22T07:55:40;101517.78;;;19.63;54.89
61026;BME280;46911;32.650;-16.902;2023-05-22T07:57:42;101516.19;;;19.70;55.08
61026;BME280;46911;32.650;-16.902;2023-05-22T07:59:53;101530.88;;;19.78;55.23
61026;BME280;46911;32.650;-16.902;2023-05-22T08:01:58;101534.00;;;19.83;54.50
61026;BME280;46911;32.650;-16.902;2023-05-22T08:03:59;101529.47;;;19.73;54.43
61026;BME280;46911;32.650;-16.902;2023-05-22T08:06:01;101533.16;;;19.72;54.20
61026;BME280;46911;32.650;-16.902;2023-05-22T08:08:02;101530.91;;;19.58;54.42
61026;BME280;46911;32.650;-16.902;2023-05-22T08:10:12;101527.47;;;19.46;54.38
61026;BME280;46911;32.650;-16.902;2023-05-22T08:12:16;101515.50;;;19.29;55.21
61026;BME280;46911;32.650;-16.902;2023-05-22T08:14:17;101516.94;;;19.33;55.42
61026;BME280;46911;32.650;-16.902;2023-05-22T08:16:18;101539.44;;;19.44;55.70
61026;BME280;46911;32.650;-16.902;2023-05-22T08:18:19;101530.34;;;19.45;55.99
61026;BME280;46911;32.650;-16.902;2023-05-22T08:20:20;101536.31;;;19.48;55.45
61026;BME280;46911;32.650;-16.902;2023-05-22T08:22:21;101544.72;;;19.55;54.88
61026;BME280;46911;32.650;-16.902;2023-05-22T08:24:24;101542.16;;;19.44;55.52
61026;BME280;46911;32.650;-16.902;2023-05-22T08:26:30;101549.41;;;19.43;55.40
61026;BME280;46911;32.650;-16.902;2023-05-22T08:28:34;101535.88;;;19.23;55.12
61026;BME280;46911;32.650;-16.902;2023-05-22T08:30:44;101542.13;;;19.24;55.96
61026;BME280;46911;32.650;-16.902;2023-05-22T08:32:47;101557.66;;;19.32;55.76
61026;BME280;46911;32.650;-16.902;2023-05-22T08:34:51;101532.03;;;19.26;55.85
61026;BME280;46911;32.650;-16.902;2023-05-22T08:36:52;101558.81;;;19.49;56.29
61026;BME280;46911;32.650;-16.902;2023-05-22T08:38:55;101553.69;;;19.46;55.30
61026;BME280;46911;32.650;-16.902;2023-05-22T08:40:59;101548.53;;;19.43;54.61
61026;BME280;46911;32.650;-16.902;2023-05-22T08:43:00;101559.66;;;19.49;54.52
61026;BME280;46911;32.650;-16.902;2023-05-22T08:45:01;101548.28;;;19.46;53.97
61026;BME280;46911;32.650;-16.902;2023-05-22T08:47:03;101549.41;;;19.53;54.05
61026;BME280;46911;32.650;-16.902;2023-05-22T08:49:09;101550.69;;;19.58;54.46
61026;BME280;46911;32.650;-16.902;2023-05-22T08:51:17;101559.63;;;19.79;55.09
61026;BME280;46911;32.650;-16.902;2023-05-22T08:53:23;101556.09;;;19.88;54.64
61026;BME280;46911;32.650;-16.902;2023-05-22T08:55:26;101553.13;;;19.91;54.49
61026;BME280;46911;32.650;-16.902;2023-05-22T08:57:31;101554.00;;;19.82;53.62
61026;BME280;46911;32.650;-16.902;2023-05-22T08:59:38;101565.91;;;19.69;54.04
61026;BME280;46911;32.650;-16.902;2023-05-22T09:01:42;101579.03;;;19.84;53.84
61026;BME280;46911;32.650;-16.902;2023-05-22T09:03:45;101584.59;;;19.92;53.88
61026;BME280;46911;32.650;-16.902;2023-05-22T09:05:48;101582.34;;;19.87;53.80
61026;BME280;46911;32.650;-16.902;2023-05-22T09:07:53;101590.00;;;20.02;54.48
61026;BME280;46911;32.650;-16.902;2023-05-22T09:09:57;101587.69;;;20.17;56.07
61026;BME280;46911;32.650;-16.902;2023-05-22T09:12:00;101576.56;;;20.30;56.86
61026;BME280;46911;32.650;-16.902;2023-05-22T09:14:08;101573.22;;;20.46;56.42
61026;BME280;46911;32.650;-16.902;2023-05-22T09:16:12;101594.94;;;20.73;57.27
61026;BME280;46911;32.650;-16.902;2023-05-22T09:18:15;101594.34;;;20.80;57.88
61026;BME280;46911;32.650;-16.902;2023-05-22T09:20:19;101588.22;;;20.78;57.94
61026;BME280;46911;32.650;-16.902;2023-05-22T09:22:20;101570.53;;;20.73;58.07
61026;BME280;46911;32.650;-16.902;2023-05-22T09:24:23;101578.63;;;21.11;57.94
61026;BME280;46911;32.650;-16.902;2023-05-22T09:26:26;101561.59;;;21.37;55.52
61026;BME280;46911;32.650;-16.902;2023-05-22T09:28:32;101561.50;;;21.47;54.88
61026;BME280;46911;32.650;-16.902;2023-05-22T09:30:34;101584.88;;;21.76;53.97
61026;BME280;46911;32.650;-16.902;2023-05-22T09:32:41;101584.72;;;21.77;54.03
61026;BME280;46911;32.650;-16.902;2023-05-22T09:34:45;101592.25;;;21.83;52.66
61026;BME280;46911;32.650;-16.902;2023-05-22T09:36:52;101587.44;;;21.77;51.83
61026;BME280;46911;32.650;-16.902;2023-05-22T09:38:55;101575.00;;;21.74;51.46
61026;BME280;46911;32.650;-16.902;2023-05-22T09:41:00;101592.38;;;22.00;51.05
61026;BME280;46911;32.650;-16.902;2023-05-22T09:43:10;101588.16;;;22.05;50.57
61026;BME280;46911;32.650;-16.902;2023-05-22T09:45:17;101574.94;;;22.11;49.73
61026;BME280;46911;32.650;-16.902;2023-05-22T09:47:19;101585.25;;;22.25;50.08
61026;BME280;46911;32.650;-16.902;2023-05-22T09:49:20;101595.22;;;22.43;50.79
61026;BME280;46911;32.650;-16.902;2023-05-22T09:51:21;101567.19;;;22.85;49.98
61026;BME280;46911;32.650;-16.902;2023-05-22T09:53:26;101590.19;;;23.50;48.30
61026;BME280;46911;32.650;-16.902;2023-05-22T09:55:31;101571.13;;;23.74;45.93
61026;BME280;46911;32.650;-16.902;2023-05-22T09:57:43;101586.47;;;23.84;46.11
61026;BME280;46911;32.650;-16.902;2023-05-22T09:59:49;101573.53;;;23.61;44.86
61026;BME280;46911;32.650;-16.902;2023-05-22T10:01:57;101593.47;;;23.11;45.74
61026;BME280;46911;32.650;-16.902;2023-05-22T10:04:01;101577.38;;;23.17;45.00
61026;BME280;46911;32.650;-16.902;2023-05-22T10:06:04;101576.56;;;23.50;43.75
61026;BME280;46911;32.650;-16.902;2023-05-22T10:08:17;101596.31;;;23.52;44.08
61026;BME280;46911;32.650;-16.902;2023-05-22T10:10:23;101588.66;;;24.21;42.23
61026;BME280;46911;32.650;-16.902;2023-05-22T10:12:27;101583.72;;;24.09;40.67
61026;BME280;46911;32.650;-16.902;2023-05-22T10:14:31;101577.09;;;23.70;42.44
61026;BME280;46911;32.650;-16.902;2023-05-22T10:16:38;101591.47;;;23.21;42.66
61026;BME280;46911;32.650;-16.902;2023-05-22T10:18:44;101585.78;;;23.06;43.55
61026;BME280;46911;32.650;-16.902;2023-05-22T10:20:48;101585.59;;;22.99;43.99
61026;BME280;46911;32.650;-16.902;2023-05-22T10:22:52;101589.19;;;22.57;44.18
61026;BME280;46911;32.650;-16.902;2023-05-22T10:24:53;101589.09;;;22.75;43.65
61026;BME280;46911;32.650;-16.902;2023-05-22T10:26:54;101585.38;;;23.35;43.04
61026;BME280;46911;32.650;-16.902;2023-05-22T10:32:32;101581.88;;;24.73;39.90
61026;BME280;46911;32.650;-16.902;2023-05-22T10:34:58;101590.38;;;25.88;37.52
61026;BME280;46911;32.650;-16.902;2023-05-22T10:37:07;101591.19;;;25.50;37.43
61026;BME280;46911;32.650;-16.902;2023-05-22T10:39:53;101590.69;;;25.47;37.76
61026;BME280;46911;32.650;-16.902;2023-05-22T10:42:01;101593.09;;;24.87;38.55
61026;BME280;46911;32.650;-16.902;2023-05-22T10:44:02;101594.81;;;24.80;39.21
61026;BME280;46911;32.650;-16.902;2023-05-22T10:46:06;101571.63;;;23.78;41.85
61026;BME280;46911;32.650;-16.902;2023-05-22T10:48:10;101577.59;;;22.89;43.60